createdAt,value
2022-11-21T00:00:57.780Z,11.73
2022-11-21T00:03:24.621Z,15.20
2022-11-21T00:08:21.110Z,10.85
2022-11-21T00:10:48.299Z,13.25
2022-11-21T00:13:20.670Z,11.13
2022-11-21T00:15:48.199Z,9.63
2022-11-21T00:18:15.849Z,11.30
2022-11-21T00:20:43.463Z,8.05
2022-11-21T00:23:11.186Z,9.32
2022-11-21T00:25:39.571Z,10.60
2022-11-21T00:28:06.502Z,8.43
2022-11-21T00:30:33.459Z,10.90
2022-11-21T00:33:00.806Z,8.70
2022-11-21T00:35:28.018Z,15.38
2022-11-21T00:37:54.713Z,10.88
2022-11-21T00:42:47.933Z,8.50
2022-11-21T00:45:17.237Z,9.75
2022-11-21T00:47:46.416Z,9.60
2022-11-21T00:50:13.247Z,8.05
2022-11-21T00:55:07.594Z,8.05
2022-11-21T00:57:34.205Z,9.07
2022-11-21T01:00:00.992Z,11.23
2022-11-21T01:04:54.281Z,8.60
2022-11-21T01:07:21.297Z,10.00
2022-11-21T01:09:48.249Z,12.00
2022-11-21T01:12:14.948Z,11.63
2022-11-21T01:14:41.584Z,10.13
2022-11-21T01:17:08.193Z,8.05
2022-11-21T01:19:34.944Z,7.97
2022-11-21T01:24:29.929Z,7.18
2022-11-21T01:26:56.683Z,8.88
2022-11-21T01:29:23.329Z,7.38
2022-11-21T01:31:50.171Z,5.63
2022-11-21T01:34:17.156Z,5.80
2022-11-21T01:36:43.853Z,7.53
2022-11-21T01:41:40.793Z,7.18
2022-11-21T01:44:23.647Z,9.30
2022-11-21T01:46:51.691Z,6.43
2022-11-21T01:49:18.305Z,8.30
2022-11-21T01:51:52.872Z,9.15
2022-11-21T01:54:25.385Z,8.10
2022-11-21T01:57:07.760Z,6.47
2022-11-21T01:59:37.456Z,7.38
2022-11-21T02:02:07.475Z,8.75
2022-11-21T02:04:40.086Z,9.93
2022-11-21T02:07:07.985Z,10.30
2022-11-21T02:09:37.608Z,10.50
2022-11-21T02:12:16.438Z,8.27
2022-11-21T02:14:44.540Z,8.95
2022-11-21T02:17:11.641Z,6.72
2022-11-21T02:19:56.394Z,7.30
2022-11-21T02:22:30.743Z,10.70
2022-11-21T02:25:18.349Z,6.18
2022-11-21T02:27:46.700Z,8.35
2022-11-21T02:30:13.978Z,8.48
2022-11-21T02:32:47.196Z,5.90
2022-11-21T02:35:16.761Z,8.98
2022-11-21T02:37:47.057Z,8.23
2022-11-21T02:40:21.136Z,5.55
2022-11-21T02:43:09.442Z,10.77
2022-11-21T02:45:40.263Z,8.20
2022-11-21T02:48:08.401Z,7.13
2022-11-21T02:50:41.568Z,5.43
2022-11-21T02:53:11.125Z,10.60
2022-11-21T02:55:38.544Z,6.47
2022-11-21T02:58:05.866Z,7.57
2022-11-21T03:00:34.057Z,5.80
2022-11-21T03:03:04.215Z,7.47
2022-11-21T03:05:31.294Z,5.43
2022-11-21T03:07:58.305Z,5.43
2022-11-21T03:10:25.264Z,2.47
2022-11-21T03:13:01.001Z,6.57
2022-11-21T03:15:33.195Z,3.97
2022-11-21T03:18:02.845Z,4.10
2022-11-21T03:20:32.646Z,5.28
2022-11-21T03:23:02.417Z,4.13
2022-11-21T03:25:29.375Z,4.88
2022-11-21T03:27:56.126Z,5.93
2022-11-21T03:30:24.437Z,4.18
2022-11-21T03:32:51.292Z,4.80
2022-11-21T03:35:18.327Z,5.40
2022-11-21T03:37:44.957Z,6.47
2022-11-21T03:40:12.188Z,4.32
2022-11-21T03:42:38.807Z,4.13
2022-11-21T03:45:05.998Z,3.97
2022-11-21T03:47:33.095Z,5.22
2022-11-21T03:49:59.821Z,4.38
2022-11-21T03:52:26.550Z,6.75
2022-11-21T03:54:53.269Z,2.78
2022-11-21T03:57:19.883Z,4.28
2022-11-21T04:02:13.337Z,3.40
2022-11-21T04:07:06.656Z,3.60
2022-11-21T04:12:05.015Z,4.60
2022-11-21T04:14:34.201Z,3.72
2022-11-21T04:19:27.546Z,1.60
2022-11-21T04:21:54.223Z,2.97
2022-11-21T04:24:20.794Z,4.43
2022-11-21T04:26:47.471Z,3.67
2022-11-21T04:29:14.626Z,3.40
2022-11-21T04:31:42.318Z,7.05
2022-11-21T04:34:09.036Z,3.20
2022-11-21T04:39:02.671Z,2.38
2022-11-21T04:41:29.815Z,2.55
2022-11-21T04:43:56.760Z,2.78
2022-11-21T04:48:49.907Z,2.85
2022-11-21T04:51:16.899Z,3.35
2022-11-21T04:53:43.919Z,3.53
2022-11-21T04:56:10.912Z,6.35
2022-11-21T04:58:37.659Z,4.95
2022-11-21T05:01:08.862Z,3.08
2022-11-21T05:03:36.755Z,2.92
2022-11-21T05:06:03.429Z,3.65
2022-11-21T05:11:15.156Z,3.67
2022-11-21T05:13:41.924Z,2.88
2022-11-21T05:18:35.077Z,4.45
2022-11-21T05:21:02.796Z,5.13
2022-11-21T05:23:29.789Z,5.53
2022-11-21T05:25:56.601Z,3.55
2022-11-21T05:30:50.195Z,1.88
2022-11-21T05:33:18.018Z,6.75
2022-11-21T05:35:45.074Z,2.67
2022-11-21T05:38:11.783Z,4.68
2022-11-21T05:43:24.051Z,3.97
2022-11-21T05:45:51.469Z,3.38
2022-11-21T05:48:18.691Z,3.42
2022-11-21T05:50:49.465Z,3.45
2022-11-21T05:53:17.207Z,3.47
2022-11-21T05:55:44.570Z,2.42
2022-11-21T05:58:11.488Z,6.72
2022-11-21T06:00:38.465Z,3.22
2022-11-21T06:03:24.905Z,4.10
2022-11-21T06:05:51.873Z,3.08
2022-11-21T06:10:46.222Z,5.05
2022-11-21T06:13:23.979Z,2.90
2022-11-21T06:15:53.187Z,3.42
2022-11-21T06:18:20.657Z,2.03
2022-11-21T06:20:47.774Z,5.72
2022-11-21T06:23:15.038Z,3.70
2022-11-21T06:25:45.374Z,3.08
2022-11-21T06:28:12.854Z,2.60
2022-11-21T06:30:39.767Z,1.80
2022-11-21T06:33:07.004Z,5.95
2022-11-21T06:35:40.357Z,3.78
2022-11-21T06:38:07.139Z,3.45
2022-11-21T06:40:33.999Z,3.10
2022-11-21T06:43:01.271Z,4.15
2022-11-21T06:45:28.092Z,4.93
2022-11-21T06:47:54.839Z,3.03
2022-11-21T06:50:21.620Z,3.08
2022-11-21T06:55:15.229Z,2.67
2022-11-21T07:00:08.929Z,6.05
2022-11-21T07:02:35.575Z,3.33
2022-11-21T07:05:02.182Z,2.28
2022-11-21T07:07:28.862Z,3.20
2022-11-21T07:12:40.805Z,3.65
2022-11-21T07:15:08.315Z,5.47
2022-11-21T07:17:34.885Z,2.65
2022-11-21T07:20:01.534Z,4.25
2022-11-21T07:22:28.221Z,2.33
2022-11-21T07:27:21.488Z,2.40
2022-11-21T07:29:48.128Z,3.30
2022-11-21T07:32:15.292Z,2.15
2022-11-21T07:34:41.936Z,2.65
2022-11-21T07:37:08.565Z,2.50
2022-11-21T07:39:35.399Z,2.95
2022-11-21T07:42:02.101Z,3.75
2022-11-21T07:44:30.157Z,2.75
2022-11-21T07:46:56.930Z,3.97
2022-11-21T07:49:24.906Z,3.10
2022-11-21T07:54:18.361Z,1.13
2022-11-21T07:59:11.797Z,2.53
2022-11-21T08:01:42.586Z,0.93
2022-11-21T08:04:15.225Z,3.88
2022-11-21T08:06:41.996Z,2.25
2022-11-21T08:11:36.936Z,1.58
2022-11-21T08:14:04.015Z,3.08
2022-11-21T08:16:32.951Z,1.75
2022-11-21T08:19:00.227Z,1.90
2022-11-21T08:21:29.755Z,3.58
2022-11-21T08:23:56.978Z,2.15
2022-11-21T08:26:23.665Z,1.58
2022-11-21T08:28:53.258Z,2.05
2022-11-21T08:31:22.294Z,1.23
2022-11-21T08:36:15.732Z,2.00
2022-11-21T08:41:30.817Z,2.17
2022-11-21T08:43:57.536Z,1.55
2022-11-21T08:48:55.465Z,3.47
2022-11-21T08:51:22.870Z,4.57
2022-11-21T08:53:49.585Z,1.88
2022-11-21T08:58:42.718Z,0.85
2022-11-21T09:01:09.327Z,1.92
2022-11-21T09:03:36.218Z,3.08
2022-11-21T09:06:02.903Z,1.55
2022-11-21T09:11:07.950Z,1.13
2022-11-21T09:13:35.910Z,2.63
2022-11-21T09:16:22.297Z,1.48
2022-11-21T09:18:52.719Z,1.80
2022-11-21T09:21:21.014Z,1.20
2022-11-21T09:23:48.161Z,2.75
2022-11-21T09:26:15.275Z,1.52
2022-11-21T09:28:42.206Z,1.55
2022-11-21T09:31:09.640Z,1.65
2022-11-21T09:33:37.021Z,2.17
2022-11-21T09:36:04.010Z,4.88
2022-11-21T09:38:33.404Z,1.98
2022-11-21T09:41:37.001Z,1.38
2022-11-21T09:44:17.677Z,0.77
2022-11-21T09:46:49.187Z,1.45
2022-11-21T09:49:17.460Z,1.60
2022-11-21T09:51:46.171Z,2.55
2022-11-21T09:54:24.394Z,1.88
2022-11-21T09:56:53.673Z,1.58
2022-11-21T09:59:35.167Z,2.25
2022-11-21T10:02:03.536Z,0.80
2022-11-21T10:04:32.082Z,0.63
2022-11-21T10:07:06.547Z,1.50
2022-11-21T10:10:07.033Z,1.88
2022-11-21T10:12:45.248Z,5.60
2022-11-21T10:15:42.624Z,2.22
2022-11-21T10:18:53.151Z,1.33
2022-11-21T10:21:31.631Z,0.65
2022-11-21T10:24:23.296Z,1.60
2022-11-21T10:27:01.329Z,1.25
2022-11-21T10:29:47.462Z,0.90
2022-11-21T10:32:27.305Z,0.82
2022-11-21T10:34:59.729Z,0.63
2022-11-21T10:37:37.961Z,0.90
2022-11-21T10:40:20.678Z,0.88
2022-11-21T10:43:27.177Z,0.85
2022-11-21T10:45:54.709Z,0.85
2022-11-21T10:48:22.356Z,2.50
2022-11-21T10:51:16.978Z,0.45
2022-11-21T10:54:07.644Z,0.95
2022-11-21T10:56:38.563Z,0.40
2022-11-21T10:59:19.581Z,0.85
2022-11-21T11:02:02.167Z,0.88
2022-11-21T11:04:41.702Z,1.38
2022-11-21T11:07:28.141Z,0.88
2022-11-21T11:10:15.649Z,1.13
2022-11-21T11:13:05.255Z,0.80
2022-11-21T11:16:16.173Z,1.25
2022-11-21T11:19:01.429Z,1.10
2022-11-21T11:21:31.063Z,1.00
2022-11-21T11:24:17.753Z,0.90
2022-11-21T11:26:48.731Z,1.17
2022-11-21T11:29:16.809Z,1.73
2022-11-21T11:32:01.662Z,1.85
2022-11-21T11:34:38.585Z,2.95
2022-11-21T11:37:12.637Z,2.30
2022-11-21T11:40:07.963Z,2.05
2022-11-21T11:42:55.967Z,1.80
2022-11-21T11:46:05.479Z,0.90
2022-11-21T11:48:56.263Z,1.88
2022-11-21T11:51:28.975Z,2.65
2022-11-21T11:54:06.763Z,2.72
2022-11-21T11:56:38.345Z,1.98
2022-11-21T11:59:30.513Z,1.48
2022-11-21T12:02:27.115Z,2.45
2022-11-21T12:05:10.761Z,5.63
2022-11-21T12:11:01.405Z,11.57
2022-11-21T12:13:30.321Z,11.80
2022-11-21T12:16:06.096Z,12.18
2022-11-21T12:19:06.726Z,13.90
2022-11-21T12:21:33.766Z,13.23
2022-11-21T12:24:03.405Z,13.50
2022-11-21T12:27:05.628Z,10.93
2022-11-21T12:30:18.985Z,12.85
2022-11-21T12:32:55.699Z,12.77
2022-11-21T12:35:41.388Z,12.93
2022-11-21T12:38:26.613Z,10.77
2022-11-21T12:41:37.108Z,12.38
2022-11-21T12:44:25.054Z,12.38
2022-11-21T12:47:10.326Z,12.45
2022-11-21T12:50:13.171Z,16.15
2022-11-21T12:53:01.128Z,11.27
2022-11-21T12:55:40.281Z,11.35
2022-11-21T12:58:24.795Z,12.07
2022-11-21T13:00:57.399Z,11.80
2022-11-21T13:04:02.049Z,9.55
2022-11-21T13:06:38.636Z,11.80
2022-11-21T13:09:09.844Z,14.02
2022-11-21T13:12:06.287Z,12.35
2022-11-21T13:15:04.613Z,12.20
2022-11-21T13:17:31.193Z,9.93
2022-11-21T13:22:36.270Z,10.25
2022-11-21T13:25:32.261Z,11.15
2022-11-21T13:28:17.781Z,9.70
2022-11-21T13:30:56.910Z,8.52
2022-11-21T13:33:41.081Z,10.88
2022-11-21T13:36:27.907Z,9.82
2022-11-21T13:38:54.541Z,10.77
2022-11-21T13:41:58.464Z,9.80
2022-11-21T13:44:32.065Z,10.00
2022-11-21T13:47:12.384Z,10.10
2022-11-21T13:49:44.885Z,11.88
2022-11-21T13:52:30.559Z,9.82
2022-11-21T13:55:37.343Z,12.38
2022-11-21T13:58:33.579Z,9.27
2022-11-21T14:01:51.586Z,9.98
2022-11-21T14:04:30.251Z,9.00
2022-11-21T14:07:23.091Z,14.25
2022-11-21T14:09:52.634Z,13.77
2022-11-21T14:12:32.847Z,15.90
2022-11-21T14:15:01.308Z,15.60
2022-11-21T14:20:09.464Z,20.52
2022-11-21T14:22:57.158Z,21.55
2022-11-21T14:25:31.201Z,23.27
2022-11-21T14:27:58.830Z,24.17
2022-11-21T14:30:27.997Z,19.00
2022-11-21T14:32:54.797Z,23.27
2022-11-21T14:35:23.707Z,21.17
2022-11-21T14:37:51.237Z,25.52
2022-11-21T14:40:23.554Z,24.13
2022-11-21T14:42:50.274Z,26.63
2022-11-21T14:45:22.437Z,26.15
2022-11-21T14:47:51.632Z,24.25
2022-11-21T14:50:36.299Z,21.45
2022-11-21T14:53:04.540Z,21.52
2022-11-21T14:55:34.410Z,21.45
2022-11-21T14:58:03.839Z,21.90
2022-11-21T15:03:21.332Z,22.90
2022-11-21T15:06:06.840Z,23.17
2022-11-21T15:09:52.814Z,15.88
2022-11-21T15:11:28.689Z,20.33
2022-11-21T15:16:42.364Z,21.60
2022-11-21T15:19:10.265Z,24.85
2022-11-21T15:21:37.655Z,24.42
2022-11-21T15:24:17.871Z,22.55
2022-11-21T15:26:44.518Z,20.38
2022-11-21T15:29:21.888Z,23.92
2022-11-21T15:34:59.353Z,20.25
2022-11-21T15:37:27.878Z,23.23
2022-11-21T15:39:54.733Z,23.20
2022-11-21T15:42:33.380Z,23.63
2022-11-21T15:45:02.421Z,22.67
2022-11-21T15:47:30.243Z,23.13
2022-11-21T15:49:59.092Z,24.33
2022-11-21T15:52:25.883Z,22.65
2022-11-21T15:57:15.011Z,23.08
2022-11-21T15:59:46.827Z,18.85
2022-11-21T16:02:14.495Z,22.67
2022-11-21T16:04:42.272Z,17.08
2022-11-21T16:07:08.949Z,21.30
2022-11-21T16:09:36.444Z,23.70
2022-11-21T16:12:03.207Z,16.92
2022-11-21T16:14:29.870Z,20.25
2022-11-21T16:16:56.754Z,21.75
2022-11-21T16:19:23.506Z,13.65
2022-11-21T16:24:16.791Z,21.75
2022-11-21T16:26:43.395Z,18.13
2022-11-21T16:29:10.915Z,20.15
2022-11-21T16:31:39.854Z,16.58
2022-11-21T16:34:06.460Z,16.70
2022-11-21T16:36:33.480Z,21.33
2022-11-21T16:39:08.766Z,20.13
2022-11-21T16:41:39.384Z,22.55
2022-11-21T16:44:13.202Z,18.90
2022-11-21T16:46:47.166Z,23.73
2022-11-21T16:49:14.053Z,29.55
2022-11-21T16:54:09.072Z,24.23
2022-11-21T16:56:36.452Z,32.40
2022-11-21T16:59:03.167Z,34.15
2022-11-21T17:03:56.603Z,25.55
2022-11-21T17:08:51.640Z,21.88
2022-11-21T17:13:48.719Z,24.48
2022-11-21T17:16:17.300Z,26.13
2022-11-21T17:18:44.716Z,30.70
2022-11-21T17:21:13.657Z,22.83
2022-11-21T17:23:43.367Z,21.77
2022-11-21T17:26:13.396Z,23.77
2022-11-21T17:28:45.291Z,21.58
2022-11-21T17:31:14.914Z,23.08
2022-11-21T17:33:43.608Z,25.52
2022-11-21T17:36:13.971Z,30.85
2022-11-21T17:38:48.449Z,23.23
2022-11-21T17:41:18.065Z,25.65
2022-11-21T17:43:45.028Z,24.58
2022-11-21T17:46:14.266Z,24.23
2022-11-21T17:48:41.260Z,26.98
2022-11-21T17:51:15.352Z,21.98
2022-11-21T17:53:44.760Z,29.20
2022-11-21T17:56:14.801Z,27.90
2022-11-21T17:58:41.676Z,24.70
2022-11-21T18:01:13.695Z,24.48
2022-11-21T18:03:40.845Z,23.98
2022-11-21T18:06:12.848Z,27.15
2022-11-21T18:08:41.541Z,28.95
2022-11-21T18:11:11.121Z,29.98
2022-11-21T18:13:38.886Z,30.83
2022-11-21T18:16:09.135Z,29.77
2022-11-21T18:18:36.868Z,24.55
2022-11-21T18:21:11.999Z,22.17
2022-11-21T18:23:39.445Z,21.38
2022-11-21T18:26:11.146Z,24.15
2022-11-21T18:28:38.246Z,24.70
2022-11-21T18:31:10.036Z,19.85
2022-11-21T18:33:37.661Z,23.77
2022-11-21T18:36:06.595Z,19.85
2022-11-21T18:38:58.323Z,21.00
2022-11-21T18:41:27.310Z,21.15
2022-11-21T18:43:58.840Z,20.83
2022-11-21T18:46:27.080Z,22.75
2022-11-21T18:49:02.779Z,22.73
2022-11-21T18:51:32.935Z,24.25
2022-11-21T18:54:04.329Z,29.63
2022-11-21T18:56:31.397Z,31.15
2022-11-21T18:58:59.068Z,33.90
2022-11-21T19:01:28.197Z,28.73
2022-11-21T19:03:56.203Z,27.25
2022-11-21T19:06:24.195Z,25.65
2022-11-21T19:08:56.019Z,28.58
2022-11-21T19:11:24.850Z,24.95
2022-11-21T19:13:52.654Z,29.60
2022-11-21T19:16:21.969Z,28.88
2022-11-21T19:19:11.674Z,28.23
2022-11-21T19:21:38.473Z,25.63
2022-11-21T19:24:07.493Z,22.58
2022-11-21T19:26:34.182Z,22.38
2022-11-21T19:29:01.599Z,21.65
2022-11-21T19:31:28.581Z,18.55
2022-11-21T19:33:55.289Z,22.27
2022-11-21T19:36:23.787Z,17.77
2022-11-21T19:38:51.770Z,16.85
2022-11-21T19:41:26.184Z,22.38
2022-11-21T19:43:56.380Z,18.42
2022-11-21T19:46:28.330Z,19.50
2022-11-21T19:48:56.314Z,19.40
2022-11-21T19:51:25.502Z,32.05
2022-11-21T19:53:52.327Z,25.17
2022-11-21T19:56:24.150Z,24.50
2022-11-21T19:58:52.286Z,25.90
2022-11-21T20:01:21.548Z,29.95
2022-11-21T20:03:51.057Z,48.15
2022-11-21T20:06:26.669Z,30.40
2022-11-21T20:08:55.656Z,37.58
2022-11-21T20:11:23.453Z,34.50
2022-11-21T20:13:50.888Z,30.60
2022-11-21T20:16:21.986Z,29.02
2022-11-21T20:18:49.311Z,28.52
2022-11-21T20:21:17.231Z,32.85
2022-11-21T20:23:46.633Z,31.13
2022-11-21T20:26:14.603Z,35.35
2022-11-21T20:28:41.725Z,35.00
2022-11-21T20:31:12.798Z,36.85
2022-11-21T20:33:45.038Z,38.55
2022-11-21T20:36:17.441Z,35.60
2022-11-21T20:38:49.231Z,30.52
2022-11-21T20:41:15.921Z,26.73
2022-11-21T20:44:32.270Z,28.42
2022-11-21T20:46:29.742Z,32.63
2022-11-21T20:48:57.542Z,36.53
2022-11-21T20:54:11.468Z,32.03
2022-11-21T20:56:41.366Z,33.78
2022-11-21T20:59:11.055Z,35.42
2022-11-21T21:04:04.569Z,34.05
2022-11-21T21:06:31.183Z,45.88
2022-11-21T21:08:57.845Z,39.63
2022-11-21T21:11:50.265Z,38.28
2022-11-21T21:14:11.974Z,33.28
2022-11-21T21:16:38.518Z,33.70
2022-11-21T21:19:05.296Z,37.17
2022-11-21T21:21:32.122Z,42.35
2022-11-21T21:26:37.287Z,41.35
2022-11-21T21:29:09.979Z,39.65
2022-11-21T21:31:36.571Z,50.13
2022-11-21T21:34:03.270Z,41.97
2022-11-21T21:36:30.336Z,52.90
2022-11-21T21:38:58.929Z,51.53
2022-11-21T21:41:28.593Z,48.95
2022-11-21T21:43:57.126Z,41.28
2022-11-21T21:46:27.081Z,40.13
2022-11-21T21:48:56.164Z,41.17
2022-11-21T21:51:28.105Z,42.22
2022-11-21T21:53:56.812Z,37.75
2022-11-21T21:56:27.851Z,43.13
2022-11-21T21:58:55.895Z,37.58
2022-11-21T22:01:27.890Z,39.25
2022-11-21T22:06:23.974Z,24.90
2022-11-21T22:08:51.230Z,25.58
2022-11-21T22:11:20.034Z,24.50
2022-11-21T22:13:51.120Z,23.77
2022-11-21T22:16:17.860Z,24.08
2022-11-21T22:18:44.588Z,21.88
2022-11-21T22:21:16.469Z,28.50
2022-11-21T22:24:09.324Z,26.48
2022-11-21T22:26:32.064Z,22.38
2022-11-21T22:28:58.696Z,22.63
2022-11-21T22:31:25.326Z,27.88
2022-11-21T22:33:52.106Z,25.48
2022-11-21T22:36:19.289Z,29.08
2022-11-21T22:38:46.450Z,36.45
2022-11-21T22:41:15.878Z,38.33
2022-11-21T22:43:43.416Z,34.90
2022-11-21T22:46:12.624Z,30.23
2022-11-21T22:48:39.729Z,37.47
2022-11-21T22:51:07.593Z,30.75
2022-11-21T22:53:39.984Z,25.85
2022-11-21T22:56:09.988Z,23.80
2022-11-21T22:58:39.975Z,20.00
2022-11-21T23:01:07.904Z,20.08
2022-11-21T23:03:35.358Z,20.13
2022-11-21T23:06:03.839Z,24.95
2022-11-21T23:08:31.777Z,23.10
2022-11-21T23:11:18.828Z,25.85
2022-11-21T23:13:47.477Z,24.00
2022-11-21T23:16:15.065Z,29.15
2022-11-21T23:18:41.744Z,25.02
2022-11-21T23:21:10.152Z,25.52
2022-11-21T23:23:37.480Z,21.80
2022-11-21T23:26:06.454Z,20.58
2022-11-21T23:28:33.483Z,21.58
2022-11-21T23:31:00.119Z,19.38
2022-11-21T23:33:26.781Z,23.98
2022-11-21T23:35:53.518Z,18.50
2022-11-21T23:38:21.837Z,20.27
2022-11-21T23:40:49.171Z,23.30
2022-11-21T23:43:17.154Z,22.00
2022-11-21T23:45:45.271Z,23.58
2022-11-21T23:48:12.324Z,19.60
2022-11-21T23:50:39.068Z,20.27
2022-11-21T23:53:05.803Z,20.23
2022-11-21T23:55:32.546Z,17.08
2022-11-21T23:57:59.391Z,16.55
